createdAt,value
2023-04-27T00:03:22.232Z,100753.94
2023-04-27T00:06:27.142Z,100752.31
2023-04-27T00:09:35.625Z,100747.66
2023-04-27T00:12:46.760Z,100747.97
2023-04-27T00:15:51.838Z,100754.47
2023-04-27T00:18:56.444Z,100759.59
2023-04-27T00:22:07.530Z,100757.47
2023-04-27T00:25:14.553Z,100752.59
2023-04-27T00:28:21.945Z,100762.59
2023-04-27T00:31:43.962Z,100751.22
2023-04-27T00:34:52.269Z,100744.72
2023-04-27T00:38:06.114Z,100756.00
2023-04-27T00:41:13.438Z,100752.81
2023-04-27T00:44:33.736Z,100754.94
2023-04-27T00:47:52.214Z,100755.19
2023-04-27T00:51:07.663Z,100758.44
2023-04-27T00:54:31.893Z,100755.50
2023-04-27T00:58:02.004Z,100747.41
2023-04-27T01:01:35.899Z,100757.09
2023-04-27T01:04:47.341Z,100757.63
2023-04-27T01:07:57.504Z,100748.97
2023-04-27T01:11:07.519Z,100743.84
2023-04-27T01:14:11.394Z,100749.53
2023-04-27T01:17:28.757Z,100758.69
2023-04-27T01:20:51.758Z,100754.03
2023-04-27T01:24:08.065Z,100762.34
2023-04-27T01:27:26.928Z,100760.69
2023-04-27T01:30:33.675Z,100763.41
2023-04-27T01:33:47.298Z,100765.53
2023-04-27T01:36:51.384Z,100758.56
2023-04-27T01:40:08.268Z,100770.38
2023-04-27T01:43:30.744Z,100773.13
2023-04-27T01:46:57.822Z,100760.69
2023-04-27T01:50:22.681Z,100772.25
2023-04-27T01:53:50.102Z,100771.31
2023-04-27T01:56:56.156Z,100773.72
2023-04-27T01:59:59.891Z,100776.81
2023-04-27T02:03:13.850Z,100773.03
2023-04-27T02:06:23.428Z,100774.13
2023-04-27T02:09:26.557Z,100782.19
2023-04-27T02:12:31.581Z,100786.50
2023-04-27T02:15:42.004Z,100791.06
2023-04-27T02:19:00.946Z,100780.97
2023-04-27T02:22:21.552Z,100789.97
2023-04-27T02:25:41.831Z,100794.75
2023-04-27T02:28:47.748Z,100786.06
2023-04-27T02:31:57.003Z,100792.81
2023-04-27T02:35:05.334Z,100797.16
2023-04-27T02:38:16.089Z,100802.00
2023-04-27T02:41:28.197Z,100800.09
2023-04-27T02:44:41.305Z,100806.59
2023-04-27T02:48:05.552Z,100808.97
2023-04-27T02:51:22.765Z,100810.50
2023-04-27T02:54:46.460Z,100815.28
2023-04-27T02:58:09.149Z,100819.06
2023-04-27T03:01:12.238Z,100821.97
2023-04-27T03:04:18.149Z,100820.59
2023-04-27T03:07:22.492Z,100827.06
2023-04-27T03:10:30.320Z,100822.28
2023-04-27T03:13:47.082Z,100822.09
2023-04-27T03:17:04.606Z,100829.56
2023-04-27T03:20:10.680Z,100834.94
2023-04-27T03:23:21.947Z,100832.84
2023-04-27T03:26:44.387Z,100832.59
2023-04-27T03:30:21.597Z,100835.00
2023-04-27T03:33:37.975Z,100836.38
2023-04-27T03:37:00.549Z,100838.56
2023-04-27T03:40:20.564Z,100841.88
2023-04-27T03:43:25.979Z,100854.00
2023-04-27T03:46:29.486Z,100855.75
2023-04-27T03:49:33.032Z,100856.56
2023-04-27T03:52:53.573Z,100852.88
2023-04-27T03:56:03.848Z,100866.03
2023-04-27T03:59:17.650Z,100865.66
2023-04-27T04:02:38.634Z,100863.94
2023-04-27T04:05:59.704Z,100867.41
2023-04-27T04:09:04.761Z,100871.53
2023-04-27T04:12:19.242Z,100877.06
2023-04-27T04:15:29.101Z,100884.81
2023-04-27T04:18:39.074Z,100882.81
2023-04-27T04:21:43.687Z,100882.47
2023-04-27T04:24:49.873Z,100886.47
2023-04-27T04:28:02.445Z,100889.72
2023-04-27T04:31:09.755Z,100886.38
2023-04-27T04:34:19.639Z,100891.59
2023-04-27T04:37:23.376Z,100894.88
2023-04-27T04:40:28.817Z,100889.25
2023-04-27T04:43:34.998Z,100896.53
2023-04-27T04:46:55.317Z,100896.91
2023-04-27T04:50:04.297Z,100898.19
2023-04-27T04:53:17.563Z,100897.00
2023-04-27T04:56:25.863Z,100893.53
2023-04-27T04:59:36.408Z,100893.84
2023-04-27T05:02:41.602Z,100899.28
2023-04-27T05:10:30.172Z,100907.03
2023-04-27T05:13:48.996Z,100920.84
2023-04-27T05:17:00.705Z,100920.69
2023-04-27T05:20:05.228Z,100919.81
2023-04-27T05:23:17.579Z,100912.59
2023-04-27T05:26:22.487Z,100930.19
2023-04-27T05:29:33.858Z,100930.75
2023-04-27T05:32:58.170Z,100937.84
2023-04-27T05:36:28.147Z,100923.28
2023-04-27T05:39:48.995Z,100927.94
2023-04-27T05:43:07.364Z,100930.38
2023-04-27T05:46:28.078Z,100931.81
2023-04-27T05:49:51.655Z,100934.56
2023-04-27T05:53:15.157Z,100946.50
2023-04-27T05:56:36.400Z,100949.22
2023-04-27T05:59:50.699Z,100950.22
2023-04-27T06:03:19.796Z,100956.66
2023-04-27T06:06:35.569Z,100952.50
2023-04-27T06:09:56.521Z,100953.66
2023-04-27T06:13:20.019Z,100953.94
2023-04-27T06:16:41.049Z,100956.22
2023-04-27T06:20:01.137Z,100949.69
2023-04-27T06:23:42.474Z,100942.31
2023-04-27T06:26:45.708Z,100956.16
2023-04-27T06:29:51.034Z,100957.19
2023-04-27T06:33:01.447Z,100963.75
2023-04-27T06:36:06.668Z,100965.50
2023-04-27T06:39:16.842Z,100966.00
2023-04-27T06:42:20.711Z,100970.41
2023-04-27T06:45:28.962Z,100964.63
2023-04-27T06:48:41.183Z,100962.72
2023-04-27T06:56:28.832Z,100963.81
2023-04-27T06:59:54.630Z,100976.16
2023-04-27T07:03:14.779Z,100972.56
2023-04-27T07:06:36.014Z,100972.03
2023-04-27T07:09:40.909Z,100973.66
2023-04-27T07:12:50.539Z,100975.31
2023-04-27T07:16:01.850Z,100965.16
2023-04-27T07:19:12.659Z,100972.00
2023-04-27T07:22:20.126Z,100970.66
2023-04-27T07:25:24.853Z,100973.72
2023-04-27T07:28:32.842Z,100983.19
2023-04-27T07:31:36.721Z,100984.22
2023-04-27T07:34:59.999Z,100986.41
2023-04-27T07:38:38.757Z,100981.53
2023-04-27T07:41:55.955Z,100974.50
2023-04-27T07:46:02.800Z,100981.59
2023-04-27T07:49:34.993Z,100979.63
2023-04-27T07:53:22.666Z,100983.13
2023-04-27T07:57:13.618Z,100971.03
2023-04-27T08:00:40.530Z,100970.75
2023-04-27T08:03:59.333Z,100965.34
2023-04-27T08:08:06.186Z,100969.31
2023-04-27T08:11:17.793Z,100969.06
2023-04-27T08:14:34.439Z,100963.78
2023-04-27T08:18:37.983Z,100965.47
2023-04-27T08:21:41.112Z,100967.63
2023-04-27T08:24:54.034Z,100979.03
2023-04-27T08:28:15.384Z,100974.84
2023-04-27T08:31:31.984Z,100980.03
2023-04-27T08:35:35.772Z,100974.03
2023-04-27T08:38:44.577Z,100978.38
2023-04-27T08:46:14.155Z,100974.88
2023-04-27T08:49:18.127Z,100975.78
2023-04-27T08:53:20.576Z,100970.00
2023-04-27T09:01:40.575Z,100967.41
2023-04-27T09:04:53.173Z,100962.72
2023-04-27T09:08:30.531Z,100959.41
2023-04-27T09:11:36.530Z,100960.53
2023-04-27T09:15:06.458Z,100964.84
2023-04-27T09:18:38.073Z,100962.75
2023-04-27T09:22:36.803Z,100955.16
2023-04-27T09:25:46.373Z,100951.56
2023-04-27T09:29:53.645Z,100952.31
2023-04-27T09:38:22.875Z,100940.13
2023-04-27T09:47:48.054Z,100935.25
2023-04-27T09:51:06.917Z,100932.34
2023-04-27T09:58:56.449Z,100918.69
2023-04-27T10:02:09.946Z,100926.44
2023-04-27T10:05:49.361Z,100913.22
2023-04-27T10:14:07.411Z,100902.41
2023-04-27T10:17:39.810Z,100904.66
2023-04-27T10:21:56.800Z,100904.16
2023-04-27T10:25:42.248Z,100911.72
2023-04-27T10:29:20.415Z,100910.53
2023-04-27T10:32:26.679Z,100915.25
2023-04-27T10:36:18.691Z,100898.06
2023-04-27T10:40:09.221Z,100909.44
2023-04-27T10:43:43.218Z,100906.59
2023-04-27T10:46:52.080Z,100909.78
2023-04-27T10:50:42.104Z,100895.94
2023-04-27T10:54:08.850Z,100904.69
2023-04-27T10:57:29.018Z,100898.22
2023-04-27T11:01:05.328Z,100907.06
2023-04-27T11:04:11.376Z,100908.06
2023-04-27T11:08:11.589Z,100897.00
2023-04-27T11:11:16.805Z,100902.09
2023-04-27T11:14:46.161Z,100895.94
2023-04-27T11:19:17.256Z,100883.72
2023-04-27T11:23:21.883Z,100886.44
2023-04-27T11:26:46.765Z,100876.91
2023-04-27T11:30:03.072Z,100887.91
2023-04-27T11:33:53.616Z,100885.78
2023-04-27T11:38:10.196Z,100881.78
2023-04-27T11:42:18.221Z,100880.28
2023-04-27T11:45:38.765Z,100886.94
2023-04-27T11:48:56.753Z,100882.03
2023-04-27T11:51:59.940Z,100884.97
2023-04-27T11:55:05.801Z,100889.31
2023-04-27T11:58:15.172Z,100883.75
2023-04-27T12:01:36.971Z,100877.44
2023-04-27T12:05:26.666Z,100879.13
2023-04-27T12:08:40.930Z,100875.19
2023-04-27T12:12:13.634Z,100879.41
2023-04-27T12:15:35.029Z,100874.81
2023-04-27T12:18:39.807Z,100881.00
2023-04-27T12:21:59.450Z,100874.09
2023-04-27T12:25:29.760Z,100871.19
2023-04-27T12:28:34.809Z,100872.31
2023-04-27T12:31:52.184Z,100877.09
2023-04-27T12:35:57.357Z,100870.75
2023-04-27T12:39:27.704Z,100873.75
2023-04-27T12:42:52.748Z,100870.38
2023-04-27T12:46:23.863Z,100877.03
2023-04-27T12:49:47.486Z,100866.94
2023-04-27T12:53:28.510Z,100863.44
2023-04-27T12:57:07.362Z,100867.53
2023-04-27T13:00:14.457Z,100872.13
2023-04-27T13:03:21.512Z,100861.50
2023-04-27T13:06:29.697Z,100868.06
2023-04-27T13:14:55.856Z,100865.22
2023-04-27T13:18:06.867Z,100864.31
2023-04-27T13:21:23.930Z,100859.19
2023-04-27T13:25:00.817Z,100855.53
2023-04-27T13:28:10.667Z,100845.88
2023-04-27T13:31:20.734Z,100865.91
2023-04-27T13:34:23.933Z,100849.28
2023-04-27T13:37:53.344Z,100861.06
2023-04-27T13:40:57.195Z,100865.13
2023-04-27T13:44:05.833Z,100855.78
2023-04-27T13:47:09.457Z,100850.03
2023-04-27T13:50:17.626Z,100846.41
2023-04-27T13:53:38.804Z,100848.31
2023-04-27T13:57:00.712Z,100855.59
2023-04-27T14:00:23.889Z,100846.56
2023-04-27T14:03:28.025Z,100848.16
2023-04-27T14:06:32.588Z,100847.72
2023-04-27T14:09:44.445Z,100855.44
2023-04-27T14:12:51.714Z,100853.66
2023-04-27T14:16:00.281Z,100853.66
2023-04-27T14:19:07.130Z,100848.06
2023-04-27T14:22:10.340Z,100858.22
2023-04-27T14:25:17.478Z,100854.84
2023-04-27T14:28:22.755Z,100865.97
2023-04-27T14:31:33.480Z,100861.22
2023-04-27T14:34:43.726Z,100864.28
2023-04-27T14:38:13.865Z,100859.75
2023-04-27T14:41:43.215Z,100862.38
2023-04-27T14:44:57.285Z,100859.75
2023-04-27T14:48:01.304Z,100866.22
2023-04-27T14:51:06.476Z,100863.44
2023-04-27T14:54:21.019Z,100849.28
2023-04-27T14:57:24.352Z,100847.09
2023-04-27T15:00:30.909Z,100848.63
2023-04-27T15:03:36.117Z,100863.16
2023-04-27T15:06:43.296Z,100868.78
2023-04-27T15:09:51.976Z,100868.28
2023-04-27T15:12:58.413Z,100867.22
2023-04-27T15:16:13.369Z,100864.16
2023-04-27T15:19:33.788Z,100861.00
2023-04-27T15:22:37.216Z,100857.59
2023-04-27T15:25:43.421Z,100868.97
2023-04-27T15:28:56.395Z,100851.00
2023-04-27T15:32:07.132Z,100864.59
2023-04-27T15:35:23.354Z,100871.09
2023-04-27T15:39:02.379Z,100861.03
2023-04-27T15:42:26.378Z,100868.03
2023-04-27T15:45:45.486Z,100873.97
2023-04-27T15:48:55.537Z,100864.38
2023-04-27T15:51:58.508Z,100868.34
2023-04-27T15:55:05.040Z,100865.09
2023-04-27T15:58:13.304Z,100866.63
2023-04-27T16:01:30.848Z,100875.00
2023-04-27T16:04:34.023Z,100867.44
2023-04-27T16:07:43.645Z,100872.56
2023-04-27T16:10:53.341Z,100869.72
2023-04-27T16:13:56.479Z,100866.84
2023-04-27T16:17:02.973Z,100866.41
2023-04-27T16:20:08.147Z,100878.38
2023-04-27T16:23:12.046Z,100871.31
2023-04-27T16:26:16.524Z,100877.66
2023-04-27T16:29:19.834Z,100883.47
2023-04-27T16:32:42.664Z,100885.06
2023-04-27T16:35:46.856Z,100890.88
2023-04-27T16:38:51.401Z,100883.19
2023-04-27T16:41:58.198Z,100886.91
2023-04-27T16:45:02.624Z,100889.59
2023-04-27T16:48:08.115Z,100885.97
2023-04-27T16:51:29.491Z,100885.56
2023-04-27T16:54:32.776Z,100892.03
2023-04-27T16:57:37.044Z,100898.00
2023-04-27T17:00:47.115Z,100896.75
2023-04-27T17:04:14.262Z,100890.78
2023-04-27T17:07:33.081Z,100899.06
2023-04-27T17:10:36.935Z,100898.88
2023-04-27T17:13:39.977Z,100902.59
2023-04-27T17:16:48.350Z,100902.28
2023-04-27T17:20:02.658Z,100906.47
2023-04-27T17:23:19.898Z,100903.22
2023-04-27T17:26:39.912Z,100906.94
2023-04-27T17:30:03.443Z,100904.34
2023-04-27T17:33:30.433Z,100911.28
2023-04-27T17:36:51.491Z,100922.03
2023-04-27T17:40:13.458Z,100919.78
2023-04-27T17:43:33.434Z,100931.97
2023-04-27T17:46:53.902Z,100927.34
2023-04-27T17:50:11.388Z,100934.66
2023-04-27T17:53:35.440Z,100931.97
2023-04-27T17:56:58.399Z,100938.09
2023-04-27T18:00:19.421Z,100943.16
2023-04-27T18:03:43.578Z,100935.06
2023-04-27T18:07:03.406Z,100946.72
2023-04-27T18:10:23.445Z,100951.38
2023-04-27T18:13:27.359Z,100950.56
2023-04-27T18:16:30.526Z,100957.25
2023-04-27T18:20:04.347Z,100954.38
2023-04-27T18:23:15.327Z,100957.59
2023-04-27T18:26:31.566Z,100956.19
2023-04-27T18:29:42.335Z,100956.97
2023-04-27T18:32:46.199Z,100968.94
2023-04-27T18:35:57.098Z,100971.44
2023-04-27T18:39:04.064Z,100974.38
2023-04-27T18:42:24.416Z,100979.72
2023-04-27T18:45:31.770Z,100983.44
2023-04-27T18:48:36.063Z,100992.63
2023-04-27T18:51:52.609Z,100989.59
2023-04-27T18:55:13.714Z,100987.13
2023-04-27T18:58:43.208Z,100986.50
2023-04-27T19:02:04.021Z,100989.44
2023-04-27T19:05:31.004Z,101002.47
2023-04-27T19:08:47.271Z,100994.09
2023-04-27T19:12:01.972Z,100995.00
2023-04-27T19:15:26.147Z,100996.84
2023-04-27T19:18:47.490Z,101005.63
2023-04-27T19:21:58.959Z,101005.19
2023-04-27T19:25:22.380Z,101009.41
2023-04-27T19:28:58.112Z,101010.63
2023-04-27T19:32:16.485Z,101017.03
2023-04-27T19:35:34.103Z,101019.06
2023-04-27T19:38:52.204Z,101016.72
2023-04-27T19:41:56.477Z,101016.00
2023-04-27T19:45:01.247Z,101001.41
2023-04-27T19:48:10.638Z,101021.13
2023-04-27T19:51:14.232Z,101011.94
2023-04-27T19:54:21.343Z,101012.94
2023-04-27T19:57:37.584Z,101018.72
2023-04-27T20:00:58.108Z,101019.06
2023-04-27T20:04:19.093Z,101019.19
2023-04-27T20:07:23.181Z,101022.06
2023-04-27T20:10:27.411Z,101020.00
2023-04-27T20:13:37.871Z,101004.94
2023-04-27T20:16:41.027Z,101014.56
2023-04-27T20:19:51.402Z,101024.03
2023-04-27T20:22:55.322Z,101024.53
2023-04-27T20:26:01.840Z,101031.66
2023-04-27T20:29:22.046Z,101034.19
2023-04-27T20:32:27.435Z,101025.34
2023-04-27T20:35:37.226Z,101035.97
2023-04-27T20:38:52.903Z,101032.88
2023-04-27T20:42:14.691Z,101034.41
2023-04-27T20:45:38.015Z,101039.28
2023-04-27T20:49:06.828Z,101033.59
2023-04-27T20:52:31.104Z,101041.44
2023-04-27T20:55:48.726Z,101042.28
2023-04-27T20:58:58.692Z,101048.63
2023-04-27T21:02:03.075Z,101042.66
2023-04-27T21:05:14.429Z,101044.28
2023-04-27T21:08:23.582Z,101043.50
2023-04-27T21:11:26.898Z,101049.72
2023-04-27T21:14:43.361Z,101049.75
2023-04-27T21:17:46.623Z,101057.66
2023-04-27T21:20:51.333Z,101052.31
2023-04-27T21:24:08.829Z,101059.59
2023-04-27T21:27:31.015Z,101057.16
2023-04-27T21:30:55.031Z,101056.06
2023-04-27T21:34:18.081Z,101061.75
2023-04-27T21:37:37.217Z,101059.84
2023-04-27T21:40:59.809Z,101065.81
2023-04-27T21:44:22.766Z,101068.00
2023-04-27T21:47:44.886Z,101068.53
2023-04-27T21:51:08.809Z,101069.63
2023-04-27T21:54:27.003Z,101066.66
2023-04-27T21:57:40.641Z,101065.81
2023-04-27T22:00:45.032Z,101076.41
2023-04-27T22:03:50.649Z,101079.09
2023-04-27T22:06:54.776Z,101081.81
2023-04-27T22:10:00.450Z,101081.28
2023-04-27T22:13:17.557Z,101077.44
2023-04-27T22:16:23.388Z,101086.66
2023-04-27T22:19:37.276Z,101088.50
2023-04-27T22:22:54.741Z,101098.50
2023-04-27T22:26:14.953Z,101096.88
2023-04-27T22:29:38.384Z,101096.88
2023-04-27T22:32:48.705Z,101088.97
2023-04-27T22:35:55.940Z,101094.44
2023-04-27T22:39:10.593Z,101100.66
2023-04-27T22:42:31.340Z,101104.38
2023-04-27T22:45:41.451Z,101102.50
2023-04-27T22:48:45.670Z,101099.28
2023-04-27T22:51:49.848Z,101102.47
2023-04-27T22:54:56.243Z,101108.69
2023-04-27T22:58:00.298Z,101101.13
2023-04-27T23:01:04.431Z,101094.09
2023-04-27T23:04:15.655Z,101112.75
2023-04-27T23:07:19.359Z,101115.84
2023-04-27T23:10:31.442Z,101114.22
2023-04-27T23:13:42.268Z,101119.97
2023-04-27T23:16:58.957Z,101114.03
2023-04-27T23:20:11.106Z,101114.81
2023-04-27T23:23:24.736Z,101110.50
2023-04-27T23:26:32.204Z,101112.44
2023-04-27T23:29:43.579Z,101115.91
2023-04-27T23:33:05.496Z,101115.06
2023-04-27T23:36:26.605Z,101111.31
2023-04-27T23:39:48.417Z,101111.69
2023-04-27T23:43:04.741Z,101110.63
2023-04-27T23:46:25.529Z,101108.75
2023-04-27T23:49:55.476Z,101110.56
2023-04-27T23:52:59.130Z,101111.63
2023-04-27T23:56:02.541Z,101115.22
2023-04-27T23:59:12.155Z,101110.16
